首页
METAR-TAF:

METAR-TAF

机场 :

卡宾达, 安哥拉

纬度: 5-35-50S, 经度: 12-11-17E, 海拔: 20米

当前天气观测

该预报发布于2小时和34分钟前的10:00 UTC
风速8节,风向南转南东,在东转东南之间变化
温度 27°C
湿度 62%
气压 1019 hPa
能见度10公里或以上
散云层高于1600英尺

METAR: FNCA 231000Z 16008KT 120V190 9999 SCT016 27/19 Q1019 NOSIG

时间: 13:34 (12:34 UTC)

预报

该预报发布于1小时和34分钟前的11:00 UTC
预报有效从23日的 12点(UTC)到 23日的 24点(UTC)
风速8节,风向
能见度10公里或以上
少量云层高于2200英尺

TAF: FNCA 231100Z 2312/2324 19008KT 9999 FEW022

超过4000个机场的气象观测和天气预报(METAR&TAF报告)。

可查询的气象台以黄色和红色小点在地图上表示。

将鼠标移到小点上方,可查看气象台名称。

然后点击查看天气观测和预报。

如需切换地图:点击带黑十字的绿色按钮放大地图;点击带横线的绿色按钮缩小地图;或者点击绿色箭头查看邻近地区的地图。


METAR-TAF: